El Palomar, Argentina

1:59 PM ART on August 25, 2016 (GMT -0300)
Altos de Podesta | | Change Station

Elev 30 ft 34.58 °S, 58.62 °W | Updated 58 seconds ago

Clear
Clear
78.1 °F
Feels Like 78 °F
N
5.4
Wind Variable Wind from North
Gusts 8.3 mph

Today
High -- | Low -- °F
--% Chance of Precip.
Yesterday
High -- | Low -- °F
Precip. -- in
Pressure 29.95 in
Visibility -9999.0 miles
Clouds
Heat Index 78 °F
Dew Point 47 °F
Humidity 33%
Rainfall 0.00 in
Snow Depth Not available.
7:21 AM 6:31 PM
Last Quarter, 44% visible
METAR SADF 251600Z 29004KT CAVOK 24/12 Q1014
Pressure 29.95 in
Visibility -9999.0 miles
Clouds
Heat Index 78 °F
Dew Point 47 °F
Humidity 33%
Rainfall 0.00 in
Snow Depth Not available.
7:21 AM 6:31 PM
Last Quarter, 44% visible
METAR SADF 251600Z 29004KT CAVOK 24/12 Q1014

10-Day Weather Forecast

No radar image for this location.
×

Almanac

Astronomy

Aug. 25, 2016 Rise Set
Actual Time
Civil Twilight
Nautical Twilight
Astronomical Twilight
Moon
Length of Visible Light
Length of Day
Tomorrow will be .
, % of the Moon is Illuminated

Today's Extremes

Country Highs Country Lows

Community

WunderPhotos

Upload Photos

1,934,869 photos uploaded!

WunderBlog® & News

Nearby

Air Quality

  Air Quality AQ Index Pollutant
Not available.

Snow Depth

Station Depth Elevation

Earthquake Activity

City Distance Mag. Time & Date
Minimum magnitude displayed is 2.5.

Coastal Water Temperatures

Place Temperature

Stations

Nearby Weather Stations

Station Location Temp. Windchill Dew Point Humidity Wind Precip. Elev Updated Type